createdAt,value
2018-04-27T00:02:21.470Z,90.60
2018-04-27T00:04:48.984Z,90.80
2018-04-27T00:07:16.510Z,91.10
2018-04-27T00:09:44.844Z,91.60
2018-04-27T00:12:12.368Z,91.60
2018-04-27T00:14:39.915Z,91.60
2018-04-27T00:17:07.437Z,91.70
2018-04-27T00:19:34.983Z,91.70
2018-04-27T00:22:02.498Z,92.00
2018-04-27T00:24:30.046Z,91.60
2018-04-27T00:26:58.320Z,91.70
2018-04-27T00:29:26.629Z,91.70
2018-04-27T00:31:54.152Z,91.70
2018-04-27T00:34:21.688Z,91.70
2018-04-27T00:36:49.243Z,91.90
2018-04-27T00:39:16.763Z,91.70
2018-04-27T00:41:44.310Z,91.70
2018-04-27T00:44:11.829Z,91.90
2018-04-27T00:46:39.373Z,92.20
2018-04-27T00:49:06.891Z,91.90
2018-04-27T00:51:34.430Z,91.70
2018-04-27T00:54:02.717Z,91.90
2018-04-27T00:56:30.234Z,91.90
2018-04-27T00:58:57.781Z,92.40
2018-04-27T01:01:25.305Z,92.10
2018-04-27T01:03:52.841Z,92.20
2018-04-27T01:06:21.157Z,92.20
2018-04-27T01:08:48.706Z,92.20
2018-04-27T01:11:16.238Z,92.20
2018-04-27T01:13:43.785Z,92.30
2018-04-27T01:16:12.078Z,91.70
2018-04-27T01:18:39.624Z,91.70
2018-04-27T01:23:41.056Z,91.60
2018-04-27T01:26:08.605Z,91.90
2018-04-27T01:28:36.161Z,91.80
2018-04-27T01:31:03.712Z,91.60
2018-04-27T01:33:31.236Z,91.70
2018-04-27T01:35:58.784Z,92.00
2018-04-27T01:38:27.073Z,91.80
2018-04-27T01:40:55.569Z,91.80
2018-04-27T01:43:23.094Z,91.90
2018-04-27T01:45:52.380Z,92.00
2018-04-27T01:48:19.890Z,92.00
2018-04-27T01:50:47.448Z,92.20
2018-04-27T01:53:14.972Z,92.20
2018-04-27T01:55:44.227Z,92.40
2018-04-27T01:58:11.774Z,92.30
2018-04-27T02:00:39.300Z,92.40
2018-04-27T02:03:06.878Z,92.70
2018-04-27T02:05:35.325Z,92.30
2018-04-27T02:08:03.633Z,93.20
2018-04-27T02:10:31.157Z,93.20
2018-04-27T02:12:59.470Z,93.40
2018-04-27T02:15:26.992Z,93.40
2018-04-27T02:17:56.508Z,93.00
2018-04-27T02:37:42.105Z,92.80
2018-04-27T02:40:10.405Z,92.80
2018-04-27T02:42:37.950Z,92.80
2018-04-27T02:45:05.469Z,92.90
2018-04-27T02:47:32.990Z,92.80
2018-04-27T02:50:00.525Z,92.50
2018-04-27T02:52:29.002Z,93.00
2018-04-27T02:54:56.540Z,92.90
2018-04-27T02:57:24.850Z,93.70
2018-04-27T02:59:52.399Z,93.40
2018-04-27T03:02:19.926Z,93.20
2018-04-27T03:04:47.482Z,93.30
2018-04-27T03:07:15.026Z,93.20
2018-04-27T03:09:42.548Z,93.30
2018-04-27T03:12:12.053Z,93.00
2018-04-27T03:14:39.594Z,92.80
2018-04-27T03:17:07.142Z,92.90
2018-04-27T03:19:34.663Z,92.80
2018-04-27T03:22:02.225Z,92.60
2018-04-27T03:24:29.745Z,92.90
2018-04-27T03:26:57.314Z,93.00
2018-04-27T03:29:24.846Z,92.80
2018-04-27T03:31:52.366Z,93.00
2018-04-27T03:34:19.980Z,93.30
2018-04-27T03:36:47.447Z,93.40
2018-04-27T03:39:14.993Z,93.10
2018-04-27T03:41:42.517Z,93.30
2018-04-27T03:44:10.057Z,93.10
2018-04-27T03:46:37.587Z,93.10
2018-04-27T03:49:05.129Z,93.30
2018-04-27T03:51:32.652Z,93.10
2018-04-27T03:54:00.224Z,92.60
2018-04-27T03:56:27.804Z,93.00
2018-04-27T03:58:56.279Z,93.20
2018-04-27T04:01:35.652Z,93.00
2018-04-27T04:04:28.951Z,92.90
2018-04-27T04:06:57.261Z,92.20
2018-04-27T04:09:24.781Z,92.20
2018-04-27T04:11:53.090Z,92.20
2018-04-27T04:14:20.609Z,92.50
2018-04-27T04:16:48.166Z,92.00
2018-04-27T04:19:15.699Z,91.90
2018-04-27T04:21:43.245Z,91.90
2018-04-27T04:24:10.789Z,91.90
2018-04-27T04:26:38.333Z,92.70
2018-04-27T04:29:05.875Z,92.40
2018-04-27T04:31:33.440Z,92.30
2018-04-27T04:34:01.949Z,92.50
2018-04-27T04:36:29.473Z,92.30
2018-04-27T04:38:56.980Z,92.50
2018-04-27T04:41:24.525Z,92.40
2018-04-27T04:43:52.045Z,92.40
2018-04-27T04:46:20.355Z,92.30
2018-04-27T04:48:49.042Z,92.30
2018-04-27T04:51:16.591Z,92.20
2018-04-27T04:53:45.057Z,91.80
2018-04-27T04:56:13.346Z,91.80
2018-04-27T04:58:40.889Z,91.80
2018-04-27T05:01:09.164Z,91.70
2018-04-27T05:03:37.485Z,91.30
2018-04-27T05:06:05.010Z,91.30
2018-04-27T05:08:32.566Z,90.90
2018-04-27T05:11:00.854Z,91.10
2018-04-27T05:13:28.378Z,91.10
2018-04-27T05:15:56.739Z,90.80
2018-04-27T05:21:35.813Z,90.40
2018-04-27T05:24:03.337Z,90.20
2018-04-27T05:26:30.884Z,89.90
2018-04-27T05:28:58.409Z,89.80
2018-04-27T05:31:25.959Z,89.80
2018-04-27T05:33:53.481Z,88.50
2018-04-27T05:36:21.001Z,88.90
2018-04-27T05:38:48.558Z,89.70
2018-04-27T05:41:17.095Z,88.30
2018-04-27T05:43:45.738Z,88.00
2018-04-27T05:46:13.271Z,87.40
2018-04-27T05:48:40.802Z,85.20
2018-04-27T05:51:09.145Z,79.90
2018-04-27T05:53:36.678Z,79.80
2018-04-27T05:56:04.252Z,77.30
2018-04-27T05:58:31.772Z,75.80
2018-04-27T06:00:59.309Z,75.30
2018-04-27T06:03:33.575Z,74.30
2018-04-27T06:06:02.068Z,75.80
2018-04-27T06:08:29.618Z,74.00
2018-04-27T06:10:57.158Z,73.60
2018-04-27T06:13:24.709Z,73.60
2018-04-27T06:15:52.237Z,73.40
2018-04-27T06:18:20.547Z,73.10
2018-04-27T06:20:48.097Z,73.10
2018-04-27T06:23:16.391Z,73.70
2018-04-27T06:25:43.963Z,73.70
2018-04-27T06:28:11.490Z,73.20
2018-04-27T06:30:39.062Z,72.70
2018-04-27T06:33:06.605Z,73.50
2018-04-27T06:35:34.141Z,73.60
2018-04-27T06:38:01.695Z,73.20
2018-04-27T06:40:29.237Z,72.70
2018-04-27T06:42:58.760Z,73.50
2018-04-27T06:45:26.293Z,72.80
2018-04-27T06:47:53.869Z,73.40
2018-04-27T06:50:21.405Z,74.10
2018-04-27T06:52:48.962Z,73.10
2018-04-27T06:55:16.523Z,73.70
2018-04-27T06:57:44.053Z,73.70
2018-04-27T07:00:11.609Z,73.00
2018-04-27T07:02:39.330Z,72.70
2018-04-27T07:05:06.940Z,73.20
2018-04-27T07:07:34.447Z,73.40
2018-04-27T07:10:01.965Z,73.40
2018-04-27T07:12:29.514Z,73.70
2018-04-27T07:14:57.037Z,73.10
2018-04-27T07:17:25.155Z,73.00
2018-04-27T07:19:52.693Z,73.30
2018-04-27T07:22:20.323Z,74.00
2018-04-27T07:24:47.867Z,73.50
2018-04-27T07:27:15.446Z,73.70
2018-04-27T07:29:42.974Z,72.20
2018-04-27T07:32:10.505Z,71.60
2018-04-27T07:34:38.092Z,72.20
2018-04-27T07:37:05.637Z,71.60
2018-04-27T07:39:33.190Z,71.90
2018-04-27T07:42:00.745Z,71.50
2018-04-27T07:44:28.293Z,69.90
2018-04-27T07:46:55.843Z,69.90
2018-04-27T07:49:25.368Z,69.70
2018-04-27T07:51:52.921Z,68.90
2018-04-27T07:54:20.477Z,69.30
2018-04-27T07:56:48.033Z,67.80
2018-04-27T07:59:16.605Z,68.60
2018-04-27T08:01:44.921Z,73.10
2018-04-27T08:04:12.445Z,73.10
2018-04-27T08:06:40.005Z,75.30
2018-04-27T08:09:07.532Z,76.30
2018-04-27T08:11:35.306Z,74.80
2018-04-27T08:14:03.600Z,74.10
2018-04-27T08:16:31.903Z,74.30
2018-04-27T08:18:59.455Z,74.30
2018-04-27T08:21:26.989Z,75.90
2018-04-27T08:23:54.545Z,75.30
2018-04-27T08:26:22.909Z,74.80
2018-04-27T08:28:52.459Z,75.10
2018-04-27T08:31:19.995Z,73.50
2018-04-27T08:33:48.293Z,74.00
2018-04-27T08:36:15.848Z,74.00
2018-04-27T08:38:43.409Z,75.30
2018-04-27T08:41:10.955Z,75.30
2018-04-27T08:43:38.493Z,74.70
2018-04-27T08:46:06.808Z,73.10
2018-04-27T08:48:34.346Z,73.10
2018-04-27T08:51:01.872Z,72.70
2018-04-27T08:53:32.155Z,72.80
2018-04-27T08:55:59.681Z,72.40
2018-04-27T08:58:27.229Z,73.70
2018-04-27T09:00:55.518Z,73.50
2018-04-27T09:03:25.058Z,73.50
2018-04-27T09:05:52.603Z,74.50
2018-04-27T09:08:20.129Z,73.50
2018-04-27T09:10:47.684Z,72.10
2018-04-27T09:13:15.999Z,73.00
2018-04-27T09:15:43.558Z,73.00
2018-04-27T09:18:11.080Z,72.70
2018-04-27T09:20:38.682Z,72.10
2018-04-27T09:23:06.229Z,71.90
2018-04-27T09:25:33.758Z,72.60
2018-04-27T09:28:01.313Z,71.30
2018-04-27T09:30:28.834Z,71.90
2018-04-27T09:32:56.379Z,73.40
2018-04-27T09:35:23.900Z,71.60
2018-04-27T09:37:51.456Z,71.50
2018-04-27T09:40:18.987Z,71.50
2018-04-27T09:42:46.512Z,71.60
2018-04-27T09:45:15.044Z,71.60
2018-04-27T09:47:42.569Z,71.70
2018-04-27T09:50:10.154Z,71.60
2018-04-27T09:52:37.681Z,70.10
2018-04-27T09:55:05.241Z,70.80
2018-04-27T09:57:32.772Z,72.10
2018-04-27T10:00:00.300Z,72.20
2018-04-27T10:02:28.620Z,73.40
2018-04-27T10:04:56.179Z,73.40
2018-04-27T10:07:23.738Z,73.50
2018-04-27T10:09:51.261Z,72.00
2018-04-27T10:12:18.825Z,71.90
2018-04-27T10:14:46.355Z,71.00
2018-04-27T10:17:14.857Z,70.30
2018-04-27T10:19:43.186Z,68.90
2018-04-27T10:22:10.709Z,68.90
2018-04-27T10:24:38.261Z,71.00
2018-04-27T10:27:05.795Z,69.70
2018-04-27T10:29:33.390Z,68.00
2018-04-27T10:32:00.934Z,66.90
2018-04-27T10:34:28.499Z,68.10
2018-04-27T10:36:56.796Z,66.60
2018-04-27T10:39:24.325Z,66.60
2018-04-27T10:41:52.653Z,65.20
2018-04-27T10:44:20.169Z,65.10
2018-04-27T10:46:48.481Z,65.00
2018-04-27T10:49:16.009Z,65.00
2018-04-27T10:51:43.560Z,65.10
2018-04-27T10:54:11.850Z,65.20
2018-04-27T10:56:39.410Z,64.40
2018-04-27T10:59:06.938Z,64.60
2018-04-27T11:01:34.482Z,65.60
2018-04-27T11:04:02.790Z,63.30
2018-04-27T11:06:31.083Z,64.80
2018-04-27T11:08:58.633Z,64.80
2018-04-27T11:11:26.167Z,62.30
2018-04-27T11:13:53.729Z,63.60
2018-04-27T11:16:21.253Z,66.20
2018-04-27T11:18:48.800Z,63.10
2018-04-27T11:21:16.337Z,63.10
2018-04-27T11:23:43.863Z,61.60
2018-04-27T11:26:12.397Z,60.80
2018-04-27T11:28:39.973Z,60.10
2018-04-27T11:31:07.493Z,60.20
2018-04-27T11:33:35.016Z,60.00
2018-04-27T11:36:04.505Z,61.40
2018-04-27T11:38:32.025Z,61.40
2018-04-27T11:40:59.564Z,59.10
2018-04-27T11:43:29.054Z,62.00
2018-04-27T11:45:56.600Z,61.50
2018-04-27T11:48:24.164Z,60.00
2018-04-27T11:50:51.693Z,58.90
2018-04-27T11:53:19.316Z,60.10
2018-04-27T11:55:46.818Z,59.80
2018-04-27T11:58:14.361Z,59.10
2018-04-27T12:00:45.783Z,60.90
2018-04-27T12:03:13.315Z,60.10
2018-04-27T12:05:40.884Z,57.80
2018-04-27T12:08:09.180Z,58.70
2018-04-27T12:10:36.767Z,58.70
2018-04-27T12:13:04.290Z,58.30
2018-04-27T12:15:31.837Z,57.10
2018-04-27T12:18:00.166Z,58.10
2018-04-27T12:20:27.694Z,58.00
2018-04-27T12:22:55.243Z,55.90
2018-04-27T12:25:22.802Z,56.40
2018-04-27T12:27:50.364Z,54.00
2018-04-27T12:30:17.897Z,53.60
2018-04-27T12:32:45.425Z,54.50
2018-04-27T12:35:12.994Z,52.90
2018-04-27T12:37:40.514Z,53.30
2018-04-27T12:40:08.089Z,52.90
2018-04-27T12:42:43.328Z,52.20
2018-04-27T12:45:10.917Z,55.00
2018-04-27T12:47:38.445Z,54.40
2018-04-27T12:50:06.017Z,53.70
2018-04-27T12:52:34.513Z,51.90
2018-04-27T12:55:02.074Z,52.40
2018-04-27T12:57:29.643Z,50.80
2018-04-27T12:59:57.199Z,50.90
2018-04-27T13:02:24.764Z,51.70
2018-04-27T13:04:52.301Z,50.80
2018-04-27T13:07:20.827Z,49.20
2018-04-27T13:09:48.412Z,49.40
2018-04-27T13:12:15.976Z,48.20
2018-04-27T13:14:43.512Z,49.40
2018-04-27T13:17:11.037Z,48.00
2018-04-27T13:19:39.354Z,48.00
2018-04-27T13:22:06.885Z,48.00
2018-04-27T13:24:35.201Z,48.30
2018-04-27T13:27:02.724Z,48.30
2018-04-27T13:29:30.294Z,47.80
2018-04-27T13:31:57.863Z,48.00
2018-04-27T13:34:26.252Z,45.10
2018-04-27T13:36:53.707Z,45.00
2018-04-27T13:39:21.234Z,44.10
2018-04-27T13:41:49.548Z,43.00
2018-04-27T13:44:17.091Z,43.00
2018-04-27T13:46:45.602Z,42.30
2018-04-27T13:49:13.138Z,40.70
2018-04-27T13:51:40.701Z,42.50
2018-04-27T13:54:08.233Z,39.50
2018-04-27T13:56:36.560Z,42.60
2018-04-27T13:59:04.087Z,42.50
2018-04-27T14:01:31.625Z,42.70
2018-04-27T14:03:59.945Z,39.70
2018-04-27T14:06:27.472Z,39.70
2018-04-27T14:08:55.029Z,41.10
2018-04-27T14:11:23.329Z,43.10
2018-04-27T14:13:50.893Z,43.10
2018-04-27T14:16:18.474Z,42.30
2018-04-27T14:18:46.043Z,38.90
2018-04-27T14:21:13.622Z,38.90
2018-04-27T14:23:42.101Z,40.10
2018-04-27T14:26:10.424Z,38.50
2018-04-27T14:28:37.955Z,38.50
2018-04-27T14:31:06.281Z,40.20
2018-04-27T14:33:33.834Z,40.10
2018-04-27T14:36:01.668Z,40.60
2018-04-27T14:38:30.072Z,39.60
2018-04-27T14:40:57.631Z,39.60
2018-04-27T14:43:25.181Z,38.70
2018-04-27T14:45:52.764Z,39.10
2018-04-27T14:48:20.377Z,37.20
2018-04-27T14:50:48.665Z,35.10
2018-04-27T14:53:16.224Z,35.00
2018-04-27T14:55:43.749Z,34.40
2018-04-27T14:58:11.343Z,33.40
2018-04-27T15:00:38.872Z,34.90
2018-04-27T15:03:06.431Z,33.40
2018-04-27T15:05:33.955Z,32.10
2018-04-27T15:08:01.501Z,31.20
2018-04-27T15:10:29.056Z,33.00
2018-04-27T15:12:56.587Z,32.00
2018-04-27T15:15:24.137Z,29.20
2018-04-27T15:17:51.666Z,28.10
2018-04-27T15:20:19.218Z,27.30
2018-04-27T15:22:46.745Z,27.00
2018-04-27T15:25:14.298Z,27.00
2018-04-27T15:27:41.835Z,26.20
2018-04-27T15:30:10.142Z,25.00
2018-04-27T15:32:37.719Z,24.90
2018-04-27T15:35:05.485Z,25.70
2018-04-27T15:37:33.038Z,25.80
2018-04-27T15:40:00.652Z,25.00
2018-04-27T15:42:28.138Z,25.00
2018-04-27T15:44:56.625Z,25.00
2018-04-27T15:47:24.186Z,25.20
2018-04-27T15:49:51.719Z,26.10
2018-04-27T15:52:19.281Z,26.50
2018-04-27T15:54:46.889Z,26.50
2018-04-27T15:57:14.417Z,26.10
2018-04-27T15:59:41.982Z,26.50
2018-04-27T16:02:09.540Z,26.60
2018-04-27T16:04:37.098Z,26.30
2018-04-27T16:07:04.672Z,25.90
2018-04-27T16:09:32.242Z,25.60
2018-04-27T16:11:59.797Z,25.40
2018-04-27T16:14:27.349Z,25.20
2018-04-27T16:16:54.908Z,25.00
2018-04-27T16:19:22.493Z,25.00
2018-04-27T16:21:50.050Z,25.20
2018-04-27T16:24:17.572Z,25.20
2018-04-27T16:26:45.130Z,24.70
2018-04-27T16:29:12.677Z,25.10
2018-04-27T16:31:40.256Z,26.90
2018-04-27T16:34:07.785Z,29.80
2018-04-27T16:36:35.369Z,32.20
2018-04-27T16:39:02.917Z,33.40
2018-04-27T16:41:30.453Z,35.30
2018-04-27T16:43:58.012Z,36.20
2018-04-27T16:46:26.322Z,37.70
2018-04-27T16:48:53.882Z,37.70
2018-04-27T16:51:21.464Z,38.10
2018-04-27T16:53:49.009Z,38.30
2018-04-27T16:56:16.565Z,38.90
2018-04-27T16:58:44.177Z,39.00
2018-04-27T17:01:11.789Z,40.00
2018-04-27T17:03:39.376Z,40.20
2018-04-27T17:06:07.838Z,40.00
2018-04-27T17:08:35.429Z,39.90
2018-04-27T17:11:02.949Z,39.90
2018-04-27T17:13:30.573Z,41.00
2018-04-27T17:15:58.080Z,40.40
2018-04-27T17:18:26.604Z,41.60
2018-04-27T17:20:54.165Z,41.80
2018-04-27T17:23:21.713Z,42.20
2018-04-27T17:25:50.238Z,42.80
2018-04-27T17:28:17.764Z,42.50
2018-04-27T17:30:45.338Z,43.40
2018-04-27T17:33:12.853Z,43.70
2018-04-27T17:35:40.415Z,44.50
2018-04-27T17:38:07.961Z,44.60
2018-04-27T17:40:35.549Z,45.40
2018-04-27T17:43:04.047Z,45.60
2018-04-27T17:45:31.601Z,44.90
2018-04-27T17:47:59.931Z,45.60
2018-04-27T17:50:28.417Z,45.50
2018-04-27T17:52:57.921Z,45.20
2018-04-27T17:55:25.480Z,44.10
2018-04-27T17:57:53.041Z,43.50
2018-04-27T18:00:20.602Z,43.90
2018-04-27T18:02:48.163Z,39.80
2018-04-27T18:05:15.712Z,37.20
2018-04-27T18:07:43.281Z,37.20
2018-04-27T18:10:10.825Z,36.10
2018-04-27T18:12:38.368Z,34.80
2018-04-27T18:15:05.938Z,34.90
2018-04-27T18:17:33.694Z,35.10
2018-04-27T18:20:01.259Z,34.70
2018-04-27T18:22:28.796Z,35.10
2018-04-27T18:24:56.352Z,36.00
2018-04-27T18:27:23.878Z,36.70
2018-04-27T18:29:51.466Z,36.10
2018-04-27T18:32:19.741Z,35.60
2018-04-27T18:34:47.261Z,35.60
2018-04-27T18:37:14.828Z,35.50
2018-04-27T18:39:43.152Z,35.80
2018-04-27T18:42:12.675Z,35.70
2018-04-27T18:44:40.412Z,35.80
2018-04-27T18:47:07.983Z,36.10
2018-04-27T18:49:35.532Z,36.30
2018-04-27T18:52:03.097Z,36.50
2018-04-27T18:54:30.629Z,36.90
2018-04-27T18:56:58.199Z,37.40
2018-04-27T18:59:25.777Z,37.60
2018-04-27T19:01:53.310Z,37.70
2018-04-27T19:04:21.625Z,38.20
2018-04-27T19:06:49.150Z,38.10
2018-04-27T19:09:16.693Z,38.10
2018-04-27T19:11:44.966Z,38.60
2018-04-27T19:14:12.583Z,39.00
2018-04-27T19:16:40.837Z,38.60
2018-04-27T19:19:08.394Z,38.50
2018-04-27T19:21:35.953Z,38.30
2018-04-27T19:24:03.488Z,38.20
2018-04-27T19:26:31.970Z,38.60
2018-04-27T19:29:00.271Z,38.60
2018-04-27T19:31:27.842Z,38.60
2018-04-27T19:33:55.370Z,38.70
2018-04-27T19:36:23.689Z,39.60
2018-04-27T19:38:51.208Z,39.60
2018-04-27T19:41:18.745Z,40.10
2018-04-27T19:43:46.590Z,40.90
2018-04-27T19:46:14.133Z,40.70
2018-04-27T19:48:41.765Z,41.40
2018-04-27T19:51:10.212Z,42.70
2018-04-27T19:53:37.757Z,43.40
2018-04-27T19:56:05.334Z,44.60
2018-04-27T19:58:33.869Z,46.30
2018-04-27T20:01:01.466Z,47.10
2018-04-27T20:03:28.990Z,47.30
2018-04-27T20:05:56.577Z,47.90
2018-04-27T20:08:24.128Z,48.60
2018-04-27T20:10:52.668Z,49.60
2018-04-27T20:13:20.226Z,50.50
2018-04-27T20:15:49.539Z,51.50
2018-04-27T20:18:17.154Z,51.10
2018-04-27T20:20:44.645Z,51.90
2018-04-27T20:23:12.235Z,51.80
2018-04-27T20:25:41.349Z,52.70
2018-04-27T20:28:08.912Z,53.00
2018-04-27T20:30:36.437Z,53.30
2018-04-27T20:33:05.940Z,53.80
2018-04-27T20:35:33.494Z,54.00
2018-04-27T20:38:06.007Z,54.10
2018-04-27T20:40:34.558Z,54.70
2018-04-27T20:43:05.952Z,55.30
2018-04-27T20:45:36.401Z,55.80
2018-04-27T20:48:03.945Z,56.70
2018-04-27T20:50:32.513Z,57.60
2018-04-27T20:53:02.562Z,58.80
2018-04-27T20:55:31.931Z,58.70
2018-04-27T20:57:59.520Z,59.80
2018-04-27T21:00:30.986Z,59.60
2018-04-27T21:02:58.673Z,60.10
2018-04-27T21:05:26.237Z,61.00
2018-04-27T21:07:53.766Z,62.00
2018-04-27T21:10:21.417Z,61.90
2018-04-27T21:12:50.617Z,63.90
2018-04-27T21:15:18.150Z,63.90
2018-04-27T21:17:45.713Z,64.80
2018-04-27T21:20:13.246Z,64.90
2018-04-27T21:22:44.706Z,66.10
2018-04-27T21:25:13.146Z,66.20
2018-04-27T21:27:43.415Z,66.20
2018-04-27T21:30:13.057Z,66.80
2018-04-27T21:32:40.557Z,67.50
2018-04-27T21:35:10.138Z,68.00
2018-04-27T21:37:44.581Z,68.80
2018-04-27T21:40:12.210Z,68.90
2018-04-27T21:42:39.754Z,69.10
2018-04-27T21:45:08.427Z,69.10
2018-04-27T21:47:37.606Z,69.90
2018-04-27T21:50:07.549Z,69.90
2018-04-27T21:52:37.680Z,71.80
2018-04-27T21:55:07.290Z,71.70
2018-04-27T22:00:35.269Z,72.90
2018-04-27T22:03:06.701Z,73.20
2018-04-27T22:05:43.026Z,73.60
2018-04-27T22:08:17.492Z,74.80
2018-04-27T22:10:46.637Z,75.60
2018-04-27T22:13:17.134Z,75.60
2018-04-27T22:15:44.688Z,76.40
2018-04-27T22:18:13.000Z,77.00
2018-04-27T22:20:46.144Z,77.00
2018-04-27T22:23:16.707Z,77.50
2018-04-27T22:25:44.237Z,78.10
2018-04-27T22:28:11.769Z,78.80
2018-04-27T22:30:41.923Z,79.80
2018-04-27T22:36:07.565Z,79.80
2018-04-27T22:38:40.949Z,80.80
2018-04-27T22:41:11.200Z,81.00
2018-04-27T22:43:42.649Z,81.00
2018-04-27T22:46:10.195Z,81.60
2018-04-27T22:48:37.761Z,81.90
2018-04-27T22:51:13.185Z,81.90
2018-04-27T22:53:59.280Z,81.90
2018-04-27T22:59:29.827Z,82.00
2018-04-27T23:02:11.048Z,82.70
2018-04-27T23:04:38.579Z,82.70
2018-04-27T23:07:06.142Z,82.90
2018-04-27T23:09:33.695Z,82.90
2018-04-27T23:12:04.825Z,83.80
2018-04-27T23:14:34.049Z,83.80
2018-04-27T23:17:01.585Z,83.80
2018-04-27T23:19:35.828Z,83.30
2018-04-27T23:22:24.136Z,83.40
2018-04-27T23:24:53.445Z,83.50
2018-04-27T23:27:20.975Z,84.20
2018-04-27T23:29:48.558Z,84.20
2018-04-27T23:32:16.845Z,84.60
2018-04-27T23:34:44.400Z,84.70
2018-04-27T23:37:11.941Z,85.20
2018-04-27T23:39:40.259Z,85.80
2018-04-27T23:42:07.788Z,85.30
2018-04-27T23:44:35.321Z,85.40
2018-04-27T23:47:02.879Z,86.00
2018-04-27T23:49:30.401Z,87.00
2018-04-27T23:51:57.973Z,87.40
2018-04-27T23:54:25.524Z,87.30
2018-04-27T23:56:53.053Z,87.70
2018-04-27T23:59:21.501Z,86.70
